Terminal Aerodrome Forecast
Issued by NWS

Current Version | Previous Version | Text Only | Print | Product List | Glossary Off
Versions: 1 2 3 4 5 6 7 8 9 10 11 12 13 14 15 16 17 18 19 20 21 22 23 24 25 26 27 28 29 30 31 32 33 34 35 36 37 38 39 40 41 42 43 44 45 46 47 48 49 50

548
FTUS41 KRNK 030906 AAF
TAFLWB
TAF AMD
KLWB 030906Z 0309/0406 00000KT 6SM BR VCSH OVC040
      TEMPO 0309/0312 5SM -RA BR OVC030
     FM031300 28007KT P6SM VCSH OVC025
     FM040000 30004KT P6SM SCT009 BKN040=

USA.gov is the U.S. government's official web portal to all federal, state and local government web resources and services.